createdAt,value
2023-04-21T00:00:54.561Z,57.40
2023-04-21T00:03:24.139Z,57.53
2023-04-21T00:05:51.746Z,57.47
2023-04-21T00:08:18.941Z,57.51
2023-04-21T00:10:46.967Z,57.51
2023-04-21T00:13:14.279Z,57.51
2023-04-21T00:15:41.262Z,57.53
2023-04-21T00:18:08.164Z,57.60
2023-04-21T00:20:35.584Z,57.45
2023-04-21T00:23:03.698Z,57.70
2023-04-21T00:25:30.744Z,57.65
2023-04-21T00:27:57.438Z,57.56
2023-04-21T00:30:24.303Z,57.49
2023-04-21T00:32:51.066Z,57.47
2023-04-21T00:35:17.876Z,57.73
2023-04-21T00:37:45.047Z,57.61
2023-04-21T00:40:11.963Z,57.72
2023-04-21T00:42:40.097Z,57.82
2023-04-21T00:45:07.318Z,57.97
2023-04-21T00:47:34.105Z,57.67
2023-04-21T00:50:01.041Z,57.81
2023-04-21T00:52:28.485Z,57.88
2023-04-21T00:54:55.995Z,57.84
2023-04-21T00:57:23.343Z,57.72
2023-04-21T00:59:50.340Z,57.86
2023-04-21T01:02:18.817Z,57.99
2023-04-21T01:04:48.086Z,57.98
2023-04-21T01:07:14.906Z,57.93
2023-04-21T01:09:41.716Z,57.89
2023-04-21T01:12:11.185Z,58.03
2023-04-21T01:14:40.246Z,57.88
2023-04-21T01:17:08.092Z,57.81
2023-04-21T01:19:41.984Z,57.99
2023-04-21T01:22:13.318Z,57.96
2023-04-21T01:24:42.233Z,58.05
2023-04-21T01:27:20.519Z,58.10
2023-04-21T01:29:51.913Z,57.84
2023-04-21T01:32:21.705Z,58.19
2023-04-21T01:34:49.249Z,57.98
2023-04-21T01:37:19.865Z,57.80
2023-04-21T01:39:52.257Z,58.13
2023-04-21T01:42:19.835Z,58.09
2023-04-21T01:44:47.152Z,58.10
2023-04-21T01:47:17.514Z,58.29
2023-04-21T01:49:44.238Z,58.18
2023-04-21T01:52:12.704Z,58.14
2023-04-21T01:54:39.688Z,58.08
2023-04-21T01:57:07.496Z,58.22
2023-04-21T01:59:34.647Z,58.37
2023-04-21T02:02:03.066Z,58.27
2023-04-21T02:04:32.850Z,58.25
2023-04-21T02:07:00.041Z,58.10
2023-04-21T02:09:26.709Z,58.35
2023-04-21T02:11:55.822Z,58.25
2023-04-21T02:14:23.028Z,58.19
2023-04-21T02:16:52.981Z,58.11
2023-04-21T02:19:20.687Z,58.27
2023-04-21T02:21:47.834Z,58.03
2023-04-21T02:24:14.643Z,58.19
2023-04-21T02:26:41.351Z,58.29
2023-04-21T02:29:08.035Z,58.21
2023-04-21T02:31:49.708Z,58.31
2023-04-21T02:34:16.974Z,58.34
2023-04-21T02:36:43.871Z,58.47
2023-04-21T02:39:10.776Z,58.29
2023-04-21T02:41:38.386Z,58.09
2023-04-21T02:44:05.497Z,58.15
2023-04-21T02:46:32.571Z,58.43
2023-04-21T02:48:59.518Z,58.64
2023-04-21T02:51:26.960Z,58.26
2023-04-21T02:53:53.749Z,58.19
2023-04-21T02:56:20.493Z,58.64
2023-04-21T02:58:47.144Z,58.42
2023-04-21T03:01:13.952Z,58.46
2023-04-21T03:03:40.713Z,58.26
2023-04-21T03:06:07.704Z,58.48
2023-04-21T03:08:34.411Z,58.34
2023-04-21T03:11:01.266Z,58.34
2023-04-21T03:13:28.265Z,58.48
2023-04-21T03:15:55.063Z,58.51
2023-04-21T03:18:21.786Z,58.34
2023-04-21T03:20:48.741Z,58.51
2023-04-21T03:23:15.943Z,58.48
2023-04-21T03:25:43.180Z,58.43
2023-04-21T03:28:09.794Z,58.20
2023-04-21T03:30:36.818Z,58.49
2023-04-21T03:33:04.712Z,58.69
2023-04-21T03:35:34.300Z,58.56
2023-04-21T03:38:03.242Z,58.34
2023-04-21T03:40:30.737Z,58.51
2023-04-21T03:42:57.971Z,58.73
2023-04-21T03:45:25.000Z,58.64
2023-04-21T03:47:55.873Z,58.55
2023-04-21T03:50:23.490Z,58.31
2023-04-21T03:52:50.367Z,58.78
2023-04-21T03:55:17.164Z,58.53
2023-04-21T03:57:44.030Z,58.69
2023-04-21T04:00:11.438Z,58.40
2023-04-21T04:02:41.190Z,58.62
2023-04-21T04:05:08.437Z,58.53
2023-04-21T04:07:35.914Z,58.76
2023-04-21T04:10:02.626Z,58.39
2023-04-21T04:12:29.219Z,58.97
2023-04-21T04:14:55.983Z,58.69
2023-04-21T04:17:22.713Z,58.93
2023-04-21T04:19:49.466Z,58.76
2023-04-21T04:22:16.394Z,58.68
2023-04-21T04:24:45.082Z,58.97
2023-04-21T04:27:14.099Z,58.69
2023-04-21T04:29:41.175Z,58.99
2023-04-21T04:32:11.113Z,58.60
2023-04-21T04:34:38.019Z,58.66
2023-04-21T04:37:04.859Z,58.85
2023-04-21T04:39:31.930Z,58.94
2023-04-21T04:41:58.638Z,58.58
2023-04-21T04:44:25.920Z,58.91
2023-04-21T04:46:54.208Z,58.77
2023-04-21T04:49:23.575Z,58.68
2023-04-21T04:51:51.104Z,58.95
2023-04-21T04:54:18.196Z,59.02
2023-04-21T04:56:45.457Z,58.93
2023-04-21T04:59:12.393Z,59.17
2023-04-21T05:01:40.621Z,59.00
2023-04-21T05:04:07.706Z,58.73
2023-04-21T05:06:34.640Z,58.68
2023-04-21T05:09:01.309Z,58.93
2023-04-21T05:11:27.976Z,59.03
2023-04-21T05:13:54.876Z,58.69
2023-04-21T05:16:21.750Z,58.80
2023-04-21T05:18:51.123Z,58.83
2023-04-21T05:21:27.687Z,58.94
2023-04-21T05:23:56.419Z,59.13
2023-04-21T05:26:23.855Z,59.15
2023-04-21T05:28:51.088Z,58.99
2023-04-21T05:31:18.087Z,58.96
2023-04-21T05:33:44.991Z,58.94
2023-04-21T05:36:12.182Z,58.99
2023-04-21T05:38:39.099Z,59.02
2023-04-21T05:41:06.206Z,58.96
2023-04-21T05:43:35.857Z,58.85
2023-04-21T05:46:03.908Z,58.79
2023-04-21T05:48:30.518Z,58.84
2023-04-21T05:50:57.560Z,58.70
2023-04-21T05:53:24.381Z,58.92
2023-04-21T05:55:51.452Z,58.81
2023-04-21T05:58:18.306Z,58.74
2023-04-21T06:00:47.875Z,58.67
2023-04-21T06:03:16.204Z,58.60
2023-04-21T06:05:43.166Z,58.72
2023-04-21T06:08:09.874Z,58.60
2023-04-21T06:10:36.724Z,58.63
2023-04-21T06:13:03.431Z,58.78
2023-04-21T06:15:30.156Z,58.62
2023-04-21T06:17:57.586Z,58.43
2023-04-21T06:20:24.526Z,58.53
2023-04-21T06:22:51.176Z,58.33
2023-04-21T06:25:17.869Z,58.17
2023-04-21T06:27:45.661Z,57.98
2023-04-21T06:30:12.749Z,58.24
2023-04-21T06:32:39.637Z,57.82
2023-04-21T06:35:06.644Z,57.61
2023-04-21T06:37:33.457Z,57.49
2023-04-21T06:40:00.277Z,57.83
2023-04-21T06:42:26.874Z,57.47
2023-04-21T06:44:56.588Z,57.76
2023-04-21T06:47:23.465Z,57.81
2023-04-21T06:49:50.477Z,57.69
2023-04-21T06:52:18.269Z,57.43
2023-04-21T06:54:46.678Z,57.65
2023-04-21T06:57:15.166Z,57.49
2023-04-21T06:59:42.119Z,57.52
2023-04-21T07:02:08.883Z,57.59
2023-04-21T07:04:35.954Z,57.56
2023-04-21T07:07:03.365Z,57.58
2023-04-21T07:09:30.903Z,57.54
2023-04-21T07:11:57.500Z,57.44
2023-04-21T07:14:24.291Z,57.47
2023-04-21T07:16:51.036Z,57.37
2023-04-21T07:19:17.944Z,57.40
2023-04-21T07:21:44.840Z,57.45
2023-04-21T07:24:11.510Z,57.46
2023-04-21T07:26:38.148Z,57.52
2023-04-21T07:29:04.873Z,57.44
2023-04-21T07:31:31.842Z,57.73
2023-04-21T07:33:59.121Z,57.65
2023-04-21T07:36:28.904Z,57.59
2023-04-21T07:38:57.352Z,57.70
2023-04-21T07:41:24.028Z,57.66
2023-04-21T07:43:53.177Z,57.44
2023-04-21T07:46:21.666Z,57.57
2023-04-21T07:48:48.499Z,57.53
2023-04-21T07:51:17.982Z,57.32
2023-04-21T07:53:45.023Z,57.21
2023-04-21T07:56:13.009Z,56.97
2023-04-21T07:58:39.902Z,56.90
2023-04-21T08:01:06.771Z,56.92
2023-04-21T08:03:33.737Z,56.81
2023-04-21T08:06:00.811Z,56.75
2023-04-21T08:08:27.564Z,56.78
2023-04-21T08:10:54.644Z,57.01
2023-04-21T08:13:25.284Z,56.74
2023-04-21T08:15:53.173Z,56.87
2023-04-21T08:18:22.451Z,56.99
2023-04-21T08:20:49.467Z,56.75
2023-04-21T08:23:16.212Z,56.71
2023-04-21T08:25:43.052Z,56.62
2023-04-21T08:28:09.813Z,56.75
2023-04-21T08:30:36.598Z,57.03
2023-04-21T08:33:03.485Z,57.09
2023-04-21T08:35:30.407Z,56.95
2023-04-21T08:37:57.142Z,57.01
2023-04-21T08:40:32.434Z,56.95
2023-04-21T08:42:59.555Z,57.05
2023-04-21T08:45:27.850Z,57.13
2023-04-21T08:47:55.990Z,57.08
2023-04-21T08:50:28.482Z,56.97
2023-04-21T08:52:56.340Z,56.84
2023-04-21T08:55:27.224Z,56.80
2023-04-21T08:57:54.055Z,57.09
2023-04-21T09:00:21.360Z,57.00
2023-04-21T09:03:01.364Z,57.05
2023-04-21T09:05:33.893Z,57.05
2023-04-21T09:08:09.652Z,57.11
2023-04-21T09:10:51.186Z,57.15
2023-04-21T09:13:19.807Z,56.91
2023-04-21T09:15:49.645Z,57.03
2023-04-21T09:18:22.273Z,56.97
2023-04-21T09:20:53.074Z,56.92
2023-04-21T09:23:21.547Z,56.77
2023-04-21T09:25:48.195Z,56.68
2023-04-21T09:28:15.355Z,56.52
2023-04-21T09:30:43.374Z,56.32
2023-04-21T09:33:27.923Z,56.30
2023-04-21T09:36:01.134Z,56.22
2023-04-21T09:38:27.928Z,56.30
2023-04-21T09:40:58.939Z,56.14
2023-04-21T09:43:28.627Z,56.00
2023-04-21T09:45:56.698Z,55.96
2023-04-21T09:48:26.124Z,55.71
2023-04-21T09:53:28.464Z,56.17
2023-04-21T09:55:58.628Z,56.21
2023-04-21T09:58:28.619Z,56.34
2023-04-21T10:00:57.590Z,56.33
2023-04-21T10:03:28.461Z,56.55
2023-04-21T10:05:55.688Z,56.47
2023-04-21T10:08:22.922Z,56.53
2023-04-21T10:10:50.502Z,56.51
2023-04-21T10:13:18.789Z,56.58
2023-04-21T10:15:45.605Z,56.45
2023-04-21T10:18:21.740Z,56.39
2023-04-21T10:20:57.491Z,56.42
2023-04-21T10:23:29.862Z,56.41
2023-04-21T10:26:04.800Z,56.37
2023-04-21T10:29:02.207Z,56.31
2023-04-21T10:31:32.163Z,56.32
2023-04-21T10:34:20.735Z,56.25
2023-04-21T10:36:57.323Z,56.34
2023-04-21T10:39:28.824Z,56.25
2023-04-21T10:42:16.738Z,56.38
2023-04-21T10:44:43.767Z,56.32
2023-04-21T10:47:11.316Z,56.19
2023-04-21T10:49:39.453Z,56.23
2023-04-21T10:52:08.580Z,56.17
2023-04-21T10:54:45.837Z,56.14
2023-04-21T10:57:20.063Z,56.00
2023-04-21T10:59:48.121Z,55.98
2023-04-21T11:02:16.583Z,56.05
2023-04-21T11:04:50.256Z,56.00
2023-04-21T11:07:18.436Z,55.72
2023-04-21T11:09:47.383Z,55.77
2023-04-21T11:12:16.250Z,55.75
2023-04-21T11:14:43.959Z,55.97
2023-04-21T11:17:18.960Z,55.89
2023-04-21T11:19:55.935Z,55.91
2023-04-21T11:22:45.280Z,55.67
2023-04-21T11:25:18.455Z,55.64
2023-04-21T11:27:55.044Z,55.54
2023-04-21T11:30:30.853Z,55.49
2023-04-21T11:32:57.757Z,55.38
2023-04-21T11:35:24.509Z,55.26
2023-04-21T11:37:54.433Z,54.74
2023-04-21T11:40:21.876Z,54.37
2023-04-21T11:42:48.907Z,54.29
2023-04-21T11:45:22.107Z,54.67
2023-04-21T11:47:49.306Z,54.88
2023-04-21T11:50:34.102Z,54.86
2023-04-21T11:53:02.688Z,54.86
2023-04-21T11:55:29.507Z,54.54
2023-04-21T11:57:57.833Z,54.78
2023-04-21T12:00:29.563Z,54.62
2023-04-21T12:02:57.059Z,54.65
2023-04-21T12:05:24.340Z,54.60
2023-04-21T12:07:55.817Z,54.65
2023-04-21T12:10:22.563Z,54.31
2023-04-21T12:12:49.497Z,54.51
2023-04-21T12:15:21.876Z,54.46
2023-04-21T12:17:53.020Z,54.46
2023-04-21T12:20:21.791Z,54.35
2023-04-21T12:22:49.220Z,54.16
2023-04-21T12:25:16.205Z,54.17
2023-04-21T12:27:53.472Z,54.16
2023-04-21T12:30:21.939Z,54.39
2023-04-21T12:32:48.889Z,54.46
2023-04-21T12:35:16.343Z,54.46
2023-04-21T12:37:43.194Z,54.30
2023-04-21T12:40:10.640Z,54.05
2023-04-21T12:42:38.198Z,53.96
2023-04-21T12:45:06.600Z,54.06
2023-04-21T12:47:34.082Z,54.10
2023-04-21T12:50:01.343Z,54.20
2023-04-21T12:52:28.035Z,54.16
2023-04-21T12:54:54.714Z,53.86
2023-04-21T12:57:21.808Z,53.94
2023-04-21T12:59:48.703Z,53.81
2023-04-21T13:02:15.771Z,53.70
2023-04-21T13:04:42.766Z,53.96
2023-04-21T13:07:09.839Z,53.75
2023-04-21T13:09:36.641Z,53.83
2023-04-21T13:12:03.688Z,53.85
2023-04-21T13:14:30.636Z,53.84
2023-04-21T13:16:57.551Z,53.70
2023-04-21T13:19:24.497Z,53.86
2023-04-21T13:21:54.030Z,53.61
2023-04-21T13:24:21.749Z,53.76
2023-04-21T13:26:48.792Z,53.68
2023-04-21T13:29:16.049Z,53.69
2023-04-21T13:31:42.913Z,53.60
2023-04-21T13:34:09.841Z,53.64
2023-04-21T13:36:36.640Z,53.41
2023-04-21T13:39:05.702Z,53.49
2023-04-21T13:41:32.775Z,53.49
2023-04-21T13:43:59.580Z,53.65
2023-04-21T13:46:26.967Z,53.37
2023-04-21T13:48:54.490Z,53.58
2023-04-21T13:51:21.536Z,53.57
2023-04-21T13:53:49.059Z,53.61
2023-04-21T13:56:17.065Z,53.49
2023-04-21T13:58:44.715Z,53.47
2023-04-21T14:01:14.682Z,53.35
2023-04-21T14:03:41.697Z,53.33
2023-04-21T14:06:09.034Z,53.50
2023-04-21T14:08:35.974Z,53.50
2023-04-21T14:11:03.480Z,53.46
2023-04-21T14:13:37.343Z,53.58
2023-04-21T14:16:07.577Z,53.50
2023-04-21T14:18:34.468Z,55.26
2023-04-21T14:21:01.227Z,54.98
2023-04-21T14:23:28.135Z,54.42
2023-04-21T14:25:55.174Z,54.21
2023-04-21T14:28:22.051Z,54.02
2023-04-21T14:30:48.906Z,53.99
2023-04-21T14:33:15.791Z,53.96
2023-04-21T14:35:42.476Z,54.11
2023-04-21T14:38:09.217Z,54.18
2023-04-21T14:40:36.192Z,54.02
2023-04-21T14:43:02.902Z,54.09
2023-04-21T14:45:32.621Z,54.23
2023-04-21T14:47:59.420Z,54.20
2023-04-21T14:50:26.276Z,54.21
2023-04-21T14:52:55.786Z,54.18
2023-04-21T14:55:22.972Z,54.26
2023-04-21T14:57:54.624Z,54.11
2023-04-21T15:00:23.220Z,54.14
2023-04-21T15:02:50.109Z,55.15
2023-04-21T15:05:18.524Z,54.80
2023-04-21T15:07:45.535Z,54.61
2023-04-21T15:10:12.628Z,54.57
2023-04-21T15:12:39.641Z,54.27
2023-04-21T15:15:06.790Z,54.12
2023-04-21T15:17:33.555Z,54.24
2023-04-21T15:20:00.205Z,54.29
2023-04-21T15:22:26.990Z,54.32
2023-04-21T15:24:54.735Z,54.85
2023-04-21T15:27:21.847Z,54.52
2023-04-21T15:29:48.633Z,54.45
2023-04-21T15:32:15.557Z,54.13
2023-04-21T15:34:42.263Z,53.80
2023-04-21T15:37:08.943Z,54.15
2023-04-21T15:39:35.841Z,54.30
2023-04-21T15:42:04.434Z,54.48
2023-04-21T15:44:31.638Z,54.55
2023-04-21T15:46:58.591Z,54.61
2023-04-21T15:49:26.232Z,54.61
2023-04-21T15:51:53.226Z,54.78
2023-04-21T15:54:19.985Z,54.91
2023-04-21T15:56:46.858Z,54.91
2023-04-21T15:59:13.754Z,54.92
2023-04-21T16:01:40.687Z,55.13
2023-04-21T16:04:07.862Z,55.00
2023-04-21T16:06:36.112Z,55.18
2023-04-21T16:09:03.025Z,55.37
2023-04-21T16:11:29.748Z,55.37
2023-04-21T16:13:56.733Z,55.41
2023-04-21T16:16:23.574Z,55.49
2023-04-21T16:18:50.245Z,55.53
2023-04-21T16:21:17.246Z,55.31
2023-04-21T16:23:44.224Z,55.49
2023-04-21T16:26:11.087Z,55.66
2023-04-21T16:28:37.885Z,55.69
2023-04-21T16:31:04.786Z,55.65
2023-04-21T16:33:31.738Z,55.70
2023-04-21T16:35:58.438Z,55.66
2023-04-21T16:38:25.109Z,55.69
2023-04-21T16:40:51.954Z,55.66
2023-04-21T16:43:18.929Z,55.70
2023-04-21T16:45:46.002Z,55.64
2023-04-21T16:48:13.228Z,55.27
2023-04-21T16:50:41.915Z,55.42
2023-04-21T16:53:09.025Z,55.38
2023-04-21T16:55:36.001Z,55.33
2023-04-21T16:58:02.816Z,55.44
2023-04-21T17:00:30.513Z,55.27
2023-04-21T17:02:57.877Z,55.37
2023-04-21T17:05:24.978Z,55.34
2023-04-21T17:07:52.010Z,55.27
2023-04-21T17:10:18.822Z,55.19
2023-04-21T17:12:46.220Z,55.26
2023-04-21T17:15:13.305Z,55.23
2023-04-21T17:17:42.950Z,55.31
2023-04-21T17:20:11.803Z,55.24
2023-04-21T17:22:39.733Z,55.31
2023-04-21T17:25:07.885Z,55.42
2023-04-21T17:27:36.187Z,55.51
2023-04-21T17:30:07.338Z,55.49
2023-04-21T17:32:34.580Z,55.55
2023-04-21T17:35:02.110Z,55.52
2023-04-21T17:37:30.315Z,55.46
2023-04-21T17:39:59.122Z,55.43
2023-04-21T17:42:28.326Z,55.44
2023-04-21T17:44:55.062Z,55.28
2023-04-21T17:47:21.870Z,55.30
2023-04-21T17:49:48.624Z,55.33
2023-04-21T17:52:16.972Z,55.34
2023-04-21T17:54:44.035Z,55.71
2023-04-21T17:57:11.954Z,55.50
2023-04-21T17:59:39.618Z,55.56
2023-04-21T18:02:07.365Z,55.60
2023-04-21T18:04:34.816Z,55.76
2023-04-21T18:07:02.641Z,55.59
2023-04-21T18:09:29.404Z,55.73
2023-04-21T18:11:57.076Z,55.81
2023-04-21T18:14:24.652Z,55.87
2023-04-21T18:16:51.415Z,55.89
2023-04-21T18:19:18.509Z,55.92
2023-04-21T18:21:45.790Z,55.88
2023-04-21T18:24:12.416Z,55.89
2023-04-21T18:26:39.352Z,55.89
2023-04-21T18:29:06.107Z,56.05
2023-04-21T18:31:33.465Z,55.99
2023-04-21T18:34:00.354Z,56.04
2023-04-21T18:36:30.115Z,56.06
2023-04-21T18:38:59.220Z,56.01
2023-04-21T18:41:27.602Z,56.19
2023-04-21T18:43:54.802Z,56.19
2023-04-21T18:46:21.875Z,56.18
2023-04-21T18:48:48.532Z,56.06
2023-04-21T18:51:15.454Z,56.13
2023-04-21T18:53:43.356Z,56.13
2023-04-21T18:56:09.998Z,56.16
2023-04-21T18:58:36.810Z,56.09
2023-04-21T19:01:03.747Z,56.05
2023-04-21T19:04:01.915Z,56.13
2023-04-21T19:06:29.301Z,56.16
2023-04-21T19:08:56.919Z,56.12
2023-04-21T19:11:24.033Z,56.01
2023-04-21T19:13:50.769Z,56.08
2023-04-21T19:16:17.487Z,56.14
2023-04-21T19:18:44.238Z,56.16
2023-04-21T19:21:13.533Z,56.09
2023-04-21T19:23:41.287Z,56.19
2023-04-21T19:26:08.775Z,56.20
2023-04-21T19:28:36.121Z,56.13
2023-04-21T19:31:03.233Z,56.20
2023-04-21T19:33:30.010Z,56.25
2023-04-21T19:35:58.735Z,56.32
2023-04-21T19:38:27.034Z,56.34
2023-04-21T19:40:54.907Z,56.53
2023-04-21T19:43:22.666Z,56.38
2023-04-21T19:45:49.759Z,56.34
2023-04-21T19:48:16.548Z,56.49
2023-04-21T19:50:43.274Z,56.60
2023-04-21T19:53:14.589Z,56.46
2023-04-21T19:55:44.444Z,56.39
2023-04-21T19:58:11.561Z,56.45
2023-04-21T20:00:38.357Z,56.54
2023-04-21T20:03:06.637Z,56.79
2023-04-21T20:05:33.867Z,56.73
2023-04-21T20:08:00.956Z,56.65
2023-04-21T20:10:27.855Z,56.62
2023-04-21T20:12:54.469Z,56.71
2023-04-21T20:15:21.734Z,56.60
2023-04-21T20:17:49.119Z,56.68
2023-04-21T20:20:16.492Z,56.61
2023-04-21T20:22:43.262Z,56.59
2023-04-21T20:25:10.744Z,56.61
2023-04-21T20:27:37.498Z,56.83
2023-04-21T20:30:04.576Z,56.72
2023-04-21T20:32:31.491Z,56.71
2023-04-21T20:34:59.646Z,56.73
2023-04-21T20:37:26.458Z,56.78
2023-04-21T20:39:53.237Z,56.83
2023-04-21T20:42:21.774Z,56.64
2023-04-21T20:44:48.483Z,56.89
2023-04-21T20:47:15.921Z,56.86
2023-04-21T20:49:43.582Z,56.92
2023-04-21T20:52:10.618Z,56.88
2023-04-21T20:54:38.778Z,56.78
2023-04-21T20:57:07.348Z,56.95
2023-04-21T20:59:34.273Z,56.87
2023-04-21T21:02:00.981Z,56.98
2023-04-21T21:04:28.008Z,56.93
2023-04-21T21:06:54.827Z,56.95
2023-04-21T21:09:21.756Z,57.00
2023-04-21T21:11:48.433Z,57.07
2023-04-21T21:14:15.178Z,56.69
2023-04-21T21:16:42.415Z,56.89
2023-04-21T21:19:10.053Z,57.15
2023-04-21T21:21:36.738Z,57.37
2023-04-21T21:24:03.542Z,57.35
2023-04-21T21:26:30.661Z,57.38
2023-04-21T21:28:57.817Z,57.48
2023-04-21T21:31:25.662Z,57.53
2023-04-21T21:33:53.882Z,57.42
2023-04-21T21:36:20.675Z,57.40
2023-04-21T21:38:47.349Z,57.52
2023-04-21T21:41:14.783Z,57.68
2023-04-21T21:43:41.651Z,57.53
2023-04-21T21:46:08.947Z,57.65
2023-04-21T21:48:35.732Z,57.70
2023-04-21T21:51:02.703Z,57.84
2023-04-21T21:53:29.827Z,57.62
2023-04-21T21:55:56.739Z,57.86
2023-04-21T21:58:23.480Z,57.99
2023-04-21T22:00:51.997Z,57.80
2023-04-21T22:03:20.117Z,58.06
2023-04-21T22:05:47.635Z,58.01
2023-04-21T22:08:15.687Z,58.04
2023-04-21T22:10:43.382Z,57.95
2023-04-21T22:13:10.695Z,57.97
2023-04-21T22:15:38.731Z,58.10
2023-04-21T22:18:07.185Z,58.31
2023-04-21T22:20:34.122Z,58.38
2023-04-21T22:23:00.776Z,58.10
2023-04-21T22:25:27.371Z,58.49
2023-04-21T22:27:55.234Z,58.25
2023-04-21T22:30:22.092Z,58.39
2023-04-21T22:32:48.825Z,58.26
2023-04-21T22:35:15.510Z,58.34
2023-04-21T22:37:42.560Z,58.48
2023-04-21T22:40:10.104Z,58.49
2023-04-21T22:42:37.151Z,58.65
2023-04-21T22:45:05.535Z,58.50
2023-04-21T22:47:33.630Z,58.82
2023-04-21T22:50:00.572Z,58.89
2023-04-21T22:52:27.480Z,58.81
2023-04-21T22:54:54.473Z,58.85
2023-04-21T22:57:23.929Z,58.69
2023-04-21T22:59:50.702Z,58.85
2023-04-21T23:02:17.674Z,58.94
2023-04-21T23:04:44.453Z,58.89
2023-04-21T23:07:11.166Z,58.87
2023-04-21T23:09:38.056Z,58.86
2023-04-21T23:12:06.232Z,58.86
2023-04-21T23:14:33.035Z,58.87
2023-04-21T23:19:26.587Z,58.99
2023-04-21T23:21:53.425Z,58.82
2023-04-21T23:24:20.056Z,59.03
2023-04-21T23:26:46.998Z,58.84
2023-04-21T23:29:14.006Z,58.71
2023-04-21T23:31:41.029Z,59.07
2023-04-21T23:34:07.855Z,58.50
2023-04-21T23:36:34.669Z,59.02
2023-04-21T23:39:01.644Z,58.97
2023-04-21T23:41:28.573Z,59.06
2023-04-21T23:43:55.195Z,59.04
2023-04-21T23:46:21.894Z,58.94
2023-04-21T23:48:48.594Z,59.02
2023-04-21T23:51:15.843Z,59.04
2023-04-21T23:53:42.700Z,59.03
2023-04-21T23:56:09.487Z,59.06
2023-04-21T23:58:36.204Z,59.14
